Ana Sayfa
METAR-TAF:

METAR-TAF

Havaalanları :

Kuveyt, Kuveyt

Enlem: 29-13N, Boylam: 047-59E, yükseklik: 55 m

Güncel hava durumu gözlemi

Rapor saat 20:00 UTC de 24 dakika önce yapıldı.
Rüzgar batıdan 4 kt
Sıcaklık 28°C
Nem 42%
Basınç 1008 hPa
Görüş mesafesi 10 km veya daha fazla
1500 m altında bulut yok ve kümülonimbus yok

METAR: OKBK 232000Z 26004KT CAVOK 28/14 Q1008 NOSIG

Saat: 23:24 (20:24 UTC)

Tahmin

Rapor saat 22:45 UTC de 21 saat ve 39 dakika önce yapıldı.
Ayın 23'si saat 00 UTC'den ayın 24'si saat 06 UTC'ye kadar geçerli Tahmin
Rüzgar değişken yönden 3 kt
Görüş mesafesi: 7000 m
Açık gökyüzü
Geçici
ayın 23'si saat 04 UTC'den ayın 23'si saat 12 UTC'ye kadar
Rüzgar kuzey/kuzeybatıdan 10 kt

TAF: OKBK 222245Z 2300/2406 VRB03KT 7000 SKC TEMPO 2304/2312 34010KT

4.000'den fazla havaalanı için hava durumu gözlemleri ve tahminleri (METAR ve TAF raporları).

Kullanılabilir istasyonlar harita üzerinde sarı ve kırmızı noktalarla gösterilir.

İstasyonun adını görmek için fareyi noktanın üzerinde gezdirin.

Sonrasında hava gözlem ve tahminlerini görmek için tıklayın.

Haritayı değiştirmek için: yaklaştırmak için siyah artı işaretli yeşil düğmeye ve uzaklaştırmak için de eksi işaretli düğmeye hızla tıklayın; bitişik haritalar için yeşil okları kullanın.


METAR-TAF: